Main page
METAR-TAF:

METAR-TAF

Airports :

Cork Airport

Cork, Ireland

latitude: 51-51N, longitude: 008-29W, elevation: 153 m

Current weather observation

The report was made 42 minutes ago, at 20:30 UTC
Wind 9 kt from the West/Northwest
Temperature 5°C
Humidity 60%
Pressure 1027 hPa
Visibility 10 km or more
Few clouds at a height of 2700 ft
Scattered clouds at a height of 8000 ft

METAR: EICK 112030Z 30009KT 9999 FEW027 SCT080 05/M02 Q1027 NOSIG

Time: 22:12 (21:12 UTC)

Forecast

The report was made 3 hours and 6 minutes ago, at 18:06 UTC
Forecast valid from 11 at 18 UTC to 12 at 18 UTC
Wind 10 kt from the North/Northwest
Visibility 10 km or more
Few clouds at a height of 1500 ft
Scattered clouds at a height of 4000 ft
Becoming
from 11 at 19 UTC to 11 at 21 UTC
Wind 6 kt from the West
Temporary
from 12 at 12 UTC to 12 at 18 UTC
Few clouds at a height of 1800 ft, Cumulonimbus.
light rain showers

TAF: EICK 111806Z 1118/1218 33010KT 9999 FEW015 SCT040 BECMG 1119/1121 28006KT TEMPO 1212/1218 -SHRA FEW018CB

Weather observations and forecasts of more than 4000 airports (METAR and TAF reports).

The available stations are represented by yellow and red dots on the map.

Hover mouse over dot to see the name of the station.

Then click to see weather observations and forecasts.

To change the map : click on the green buttons with a black cross to zoom in, on the green button with a dash to zoom out, or on the green arrows for adjacent maps.


METAR-TAF: